createdAt,value
2017-10-18T00:01:03.958Z,23.1
2017-10-18T00:02:12.045Z,23.1
2017-10-18T00:03:20.153Z,23.1
2017-10-18T00:04:28.293Z,23.1
2017-10-18T00:05:36.327Z,23.0
2017-10-18T00:06:44.413Z,23.1
2017-10-18T00:07:52.501Z,23.1
2017-10-18T00:09:00.588Z,23.0
2017-10-18T00:10:08.675Z,23.0
2017-10-18T00:11:16.766Z,23.1
2017-10-18T00:12:24.849Z,23.1
2017-10-18T00:13:32.939Z,23.0
2017-10-18T00:14:41.035Z,22.9
2017-10-18T00:15:49.122Z,23.0
2017-10-18T00:16:57.211Z,23.1
2017-10-18T00:18:05.297Z,23.0
2017-10-18T00:19:13.385Z,23.0
2017-10-18T00:20:21.476Z,23.0
2017-10-18T00:21:29.563Z,23.0
2017-10-18T00:22:37.661Z,23.1
2017-10-18T00:23:45.747Z,23.0
2017-10-18T00:24:53.839Z,23.0
2017-10-18T00:26:01.923Z,22.9
2017-10-18T00:27:10.010Z,22.9
2017-10-18T00:28:18.122Z,22.9
2017-10-18T00:29:26.203Z,22.9
2017-10-18T00:30:34.286Z,22.9
2017-10-18T00:31:42.375Z,22.9
2017-10-18T00:32:50.475Z,22.9
2017-10-18T00:33:58.561Z,23.0
2017-10-18T00:35:06.651Z,22.9
2017-10-18T00:36:14.735Z,22.9
2017-10-18T00:37:22.824Z,23.0
2017-10-18T00:38:30.911Z,22.9
2017-10-18T00:39:39.000Z,22.9
2017-10-18T00:40:47.093Z,22.8
2017-10-18T00:41:55.173Z,22.8
2017-10-18T00:43:03.266Z,22.9
2017-10-18T00:44:11.352Z,22.9
2017-10-18T00:45:19.436Z,22.9
2017-10-18T00:46:27.524Z,22.9
2017-10-18T00:47:35.611Z,22.9
2017-10-18T00:48:43.698Z,22.9
2017-10-18T00:49:51.784Z,22.9
2017-10-18T00:50:59.875Z,22.9
2017-10-18T00:52:07.963Z,22.8
2017-10-18T00:53:16.051Z,22.8
2017-10-18T00:54:24.138Z,22.8
2017-10-18T00:55:32.227Z,22.8
2017-10-18T00:56:40.309Z,22.8
2017-10-18T00:57:48.398Z,22.8
2017-10-18T00:58:56.485Z,22.7
2017-10-18T01:00:04.698Z,22.8
2017-10-18T01:01:12.784Z,22.8
2017-10-18T01:02:20.873Z,22.8
2017-10-18T01:03:28.967Z,22.8
2017-10-18T01:04:37.071Z,22.8
2017-10-18T01:05:45.170Z,22.8
2017-10-18T01:06:53.243Z,22.7
2017-10-18T01:08:01.333Z,22.8
2017-10-18T01:09:09.427Z,22.8
2017-10-18T01:10:17.505Z,22.8
2017-10-18T01:11:25.599Z,22.8
2017-10-18T01:12:33.680Z,22.8
2017-10-18T01:13:41.785Z,22.8
2017-10-18T01:14:49.856Z,22.8
2017-10-18T01:15:57.945Z,22.8
2017-10-18T01:17:06.030Z,22.8
2017-10-18T01:18:14.126Z,22.6
2017-10-18T01:19:22.207Z,22.8
2017-10-18T01:20:30.294Z,22.7
2017-10-18T01:21:38.379Z,22.7
2017-10-18T01:22:46.468Z,22.6
2017-10-18T01:23:54.553Z,22.6
2017-10-18T01:25:02.645Z,22.6
2017-10-18T01:26:10.737Z,22.6
2017-10-18T01:27:18.817Z,22.6
2017-10-18T01:28:26.905Z,22.6
2017-10-18T01:29:34.992Z,22.7
2017-10-18T01:30:43.087Z,22.6
2017-10-18T01:31:51.167Z,22.6
2017-10-18T01:32:59.255Z,22.6
2017-10-18T01:34:07.339Z,22.6
2017-10-18T01:35:15.430Z,22.6
2017-10-18T01:36:23.515Z,22.6
2017-10-18T01:37:31.602Z,22.6
2017-10-18T01:38:39.689Z,22.5
2017-10-18T01:39:47.777Z,22.5
2017-10-18T01:40:55.866Z,22.6
2017-10-18T01:42:03.952Z,22.6
2017-10-18T01:43:12.058Z,22.6
2017-10-18T01:44:20.128Z,22.6
2017-10-18T01:45:28.213Z,22.6
2017-10-18T01:46:36.300Z,22.5
2017-10-18T01:47:44.391Z,22.6
2017-10-18T01:48:52.476Z,22.5
2017-10-18T01:50:00.778Z,22.5
2017-10-18T01:51:08.658Z,22.5
2017-10-18T01:52:17.812Z,22.5
2017-10-18T01:53:24.828Z,22.5
2017-10-18T01:54:32.909Z,22.5
2017-10-18T01:55:41.003Z,22.6
2017-10-18T01:56:49.096Z,22.6
2017-10-18T01:57:57.191Z,22.5
2017-10-18T01:59:05.278Z,22.5
2017-10-18T02:00:13.368Z,22.5
2017-10-18T02:01:21.455Z,22.5
2017-10-18T02:02:29.541Z,22.4
2017-10-18T02:03:37.632Z,22.4
2017-10-18T02:04:45.717Z,22.4
2017-10-18T02:05:53.804Z,22.4
2017-10-18T02:07:01.891Z,22.4
2017-10-18T02:08:09.976Z,22.4
2017-10-18T02:09:18.071Z,22.4
2017-10-18T02:10:26.167Z,22.4
2017-10-18T02:11:34.244Z,22.4
2017-10-18T02:12:42.332Z,22.3
2017-10-18T02:13:50.418Z,22.3
2017-10-18T02:14:58.504Z,22.3
2017-10-18T02:16:06.597Z,22.3
2017-10-18T02:17:14.688Z,22.3
2017-10-18T02:18:22.774Z,22.3
2017-10-18T02:19:30.863Z,22.2
2017-10-18T02:20:38.961Z,22.3
2017-10-18T02:21:47.046Z,22.3
2017-10-18T02:22:55.134Z,22.3
2017-10-18T02:24:03.220Z,22.2
2017-10-18T02:25:11.306Z,22.2
2017-10-18T02:26:19.414Z,22.3
2017-10-18T02:27:27.478Z,22.2
2017-10-18T02:28:35.566Z,22.2
2017-10-18T02:29:43.652Z,22.2
2017-10-18T02:30:51.775Z,22.2
2017-10-18T02:31:59.828Z,22.3
2017-10-18T02:33:07.914Z,22.2
2017-10-18T02:34:16.001Z,22.1
2017-10-18T02:35:24.088Z,22.2
2017-10-18T02:36:32.233Z,22.2
2017-10-18T02:37:40.260Z,22.1
2017-10-18T02:38:48.349Z,22.2
2017-10-18T02:39:56.435Z,22.1
2017-10-18T02:41:04.520Z,22.0
2017-10-18T02:42:12.606Z,22.1
2017-10-18T02:43:20.693Z,22.1
2017-10-18T02:44:28.782Z,22.1
2017-10-18T02:45:36.867Z,22.1
2017-10-18T02:46:44.956Z,22.1
2017-10-18T02:47:53.042Z,22.1
2017-10-18T02:49:01.129Z,22.1
2017-10-18T02:50:09.215Z,22.0
2017-10-18T02:51:17.301Z,22.0
2017-10-18T02:52:25.388Z,22.0
2017-10-18T02:53:33.472Z,22.0
2017-10-18T02:54:41.579Z,22.0
2017-10-18T02:55:49.668Z,21.9
2017-10-18T02:56:57.752Z,22.1
2017-10-18T02:58:05.838Z,21.9
2017-10-18T02:59:13.925Z,22.0
2017-10-18T03:00:22.011Z,21.9
2017-10-18T03:01:30.098Z,21.9
2017-10-18T03:02:38.184Z,21.9
2017-10-18T03:03:46.268Z,21.9
2017-10-18T03:04:54.359Z,21.9
2017-10-18T03:06:02.444Z,21.9
2017-10-18T03:07:10.530Z,21.9
2017-10-18T03:08:18.623Z,21.9
2017-10-18T03:09:26.704Z,21.9
2017-10-18T03:10:34.790Z,21.9
2017-10-18T03:11:42.877Z,21.9
2017-10-18T03:12:50.962Z,21.9
2017-10-18T03:13:59.052Z,21.9
2017-10-18T03:15:07.136Z,21.8
2017-10-18T03:16:15.224Z,21.9
2017-10-18T03:17:23.310Z,21.8
2017-10-18T03:18:31.395Z,21.8
2017-10-18T03:19:39.481Z,21.8
2017-10-18T03:20:47.576Z,21.8
2017-10-18T03:21:55.654Z,21.8
2017-10-18T03:23:03.742Z,21.8
2017-10-18T03:24:11.829Z,21.8
2017-10-18T03:25:19.916Z,21.8
2017-10-18T03:26:28.001Z,21.7
2017-10-18T03:27:36.084Z,21.8
2017-10-18T03:28:44.172Z,21.8
2017-10-18T03:29:52.260Z,21.7
2017-10-18T03:31:00.363Z,21.7
2017-10-18T03:32:08.433Z,21.8
2017-10-18T03:33:16.518Z,21.8
2017-10-18T03:34:24.606Z,21.7
2017-10-18T03:35:32.699Z,21.6
2017-10-18T03:36:40.798Z,21.7
2017-10-18T03:37:48.885Z,21.7
2017-10-18T03:38:56.968Z,21.6
2017-10-18T03:40:05.074Z,21.7
2017-10-18T03:41:13.151Z,21.7
2017-10-18T03:42:21.241Z,21.7
2017-10-18T03:43:29.329Z,21.6
2017-10-18T03:44:37.417Z,21.6
2017-10-18T03:45:45.500Z,21.6
2017-10-18T03:46:53.588Z,21.6
2017-10-18T03:48:01.683Z,21.6
2017-10-18T03:49:09.770Z,21.7
2017-10-18T03:50:17.847Z,21.6
2017-10-18T03:51:25.935Z,21.6
2017-10-18T03:52:34.022Z,21.7
2017-10-18T03:53:42.112Z,21.7
2017-10-18T03:54:50.191Z,21.6
2017-10-18T03:55:58.279Z,21.6
2017-10-18T03:57:06.369Z,21.6
2017-10-18T03:58:14.461Z,21.6
2017-10-18T03:59:22.547Z,21.6
2017-10-18T04:00:30.639Z,21.6
2017-10-18T04:01:38.723Z,21.6
2017-10-18T04:02:46.809Z,21.6
2017-10-18T04:03:54.898Z,21.6
2017-10-18T04:05:02.981Z,21.6
2017-10-18T04:06:11.068Z,21.6
2017-10-18T04:07:19.157Z,21.6
2017-10-18T04:08:27.242Z,21.5
2017-10-18T04:09:35.329Z,21.6
2017-10-18T04:10:43.415Z,21.5
2017-10-18T04:11:51.509Z,21.6
2017-10-18T04:12:59.588Z,21.5
2017-10-18T04:14:07.674Z,21.4
2017-10-18T04:15:15.762Z,21.5
2017-10-18T04:16:23.846Z,21.5
2017-10-18T04:17:31.933Z,21.5
2017-10-18T04:18:40.022Z,21.5
2017-10-18T04:19:48.105Z,21.4
2017-10-18T04:20:56.194Z,21.4
2017-10-18T04:22:04.281Z,21.4
2017-10-18T04:23:12.367Z,21.4
2017-10-18T04:24:20.457Z,21.4
2017-10-18T04:25:28.535Z,21.5
2017-10-18T04:26:36.626Z,21.4
2017-10-18T04:27:44.712Z,21.4
2017-10-18T04:28:52.798Z,21.4
2017-10-18T04:30:00.884Z,21.3
2017-10-18T04:31:08.972Z,21.3
2017-10-18T04:32:17.059Z,21.3
2017-10-18T04:33:25.145Z,21.3
2017-10-18T04:34:33.239Z,21.3
2017-10-18T04:35:41.322Z,21.3
2017-10-18T04:36:49.425Z,21.3
2017-10-18T04:37:57.625Z,21.3
2017-10-18T04:39:06.096Z,21.4
2017-10-18T04:40:14.371Z,21.3
2017-10-18T04:41:21.778Z,21.2
2017-10-18T04:42:29.845Z,21.2
2017-10-18T04:43:38.066Z,21.3
2017-10-18T04:44:46.028Z,21.3
2017-10-18T04:45:54.121Z,21.3
2017-10-18T04:47:02.207Z,21.2
2017-10-18T04:48:10.312Z,21.2
2017-10-18T04:49:18.399Z,21.2
2017-10-18T04:50:26.486Z,21.2
2017-10-18T04:51:34.571Z,21.2
2017-10-18T04:52:42.657Z,21.1
2017-10-18T04:53:50.749Z,21.2
2017-10-18T04:54:58.839Z,21.2
2017-10-18T04:56:06.933Z,21.2
2017-10-18T04:57:15.013Z,21.2
2017-10-18T04:58:23.098Z,21.2
2017-10-18T04:59:31.348Z,21.2
2017-10-18T05:00:39.391Z,21.1
2017-10-18T05:01:47.364Z,21.1
2017-10-18T05:02:55.443Z,21.0
2017-10-18T05:04:03.526Z,21.1
2017-10-18T05:05:11.614Z,21.0
2017-10-18T05:06:19.699Z,21.1
2017-10-18T05:07:27.786Z,21.1
2017-10-18T05:08:35.873Z,21.0
2017-10-18T05:09:44.126Z,21.0
2017-10-18T05:10:52.752Z,21.0
2017-10-18T05:12:00.358Z,21.0
2017-10-18T05:13:08.225Z,21.1
2017-10-18T05:14:16.311Z,21.1
2017-10-18T05:15:24.405Z,21.0
2017-10-18T05:16:32.491Z,21.0
2017-10-18T05:17:40.576Z,21.0
2017-10-18T05:18:48.662Z,21.0
2017-10-18T05:19:56.748Z,20.9
2017-10-18T05:21:04.834Z,20.9
2017-10-18T05:22:12.930Z,20.9
2017-10-18T05:23:21.008Z,20.9
2017-10-18T05:24:29.096Z,20.9
2017-10-18T05:25:37.177Z,21.0
2017-10-18T05:26:45.266Z,21.0
2017-10-18T05:27:53.358Z,20.9
2017-10-18T05:29:01.437Z,20.9
2017-10-18T05:30:09.524Z,20.9
2017-10-18T05:31:17.608Z,20.9
2017-10-18T05:32:25.694Z,21.0
2017-10-18T05:33:33.781Z,20.9
2017-10-18T05:34:41.870Z,20.9
2017-10-18T05:35:49.956Z,20.9
2017-10-18T05:36:58.038Z,20.9
2017-10-18T05:38:06.125Z,20.9
2017-10-18T05:39:14.217Z,20.9
2017-10-18T05:40:22.296Z,20.9
2017-10-18T05:41:30.384Z,20.8
2017-10-18T05:42:38.469Z,20.8
2017-10-18T05:43:46.558Z,20.8
2017-10-18T05:44:54.646Z,20.9
2017-10-18T05:46:02.732Z,20.8
2017-10-18T05:47:10.824Z,20.9
2017-10-18T05:48:18.909Z,20.8
2017-10-18T05:49:26.996Z,20.8
2017-10-18T05:50:35.080Z,20.8
2017-10-18T05:51:43.186Z,20.8
2017-10-18T05:52:51.252Z,20.8
2017-10-18T05:53:59.422Z,20.9
2017-10-18T05:55:07.423Z,20.8
2017-10-18T05:56:15.508Z,20.8
2017-10-18T05:57:23.598Z,20.7
2017-10-18T05:58:31.684Z,20.7
2017-10-18T05:59:39.769Z,20.7
2017-10-18T06:00:47.856Z,20.7
2017-10-18T06:01:55.942Z,20.7
2017-10-18T06:03:04.026Z,20.7
2017-10-18T06:04:12.114Z,20.7
2017-10-18T06:05:20.197Z,20.6
2017-10-18T06:06:28.281Z,20.7
2017-10-18T06:07:36.368Z,20.7
2017-10-18T06:08:44.457Z,20.7
2017-10-18T06:09:52.543Z,20.7
2017-10-18T06:11:00.629Z,20.7
2017-10-18T06:12:08.791Z,20.6
2017-10-18T06:13:16.802Z,20.7
2017-10-18T06:14:24.885Z,20.7
2017-10-18T06:15:32.976Z,20.6
2017-10-18T06:16:41.058Z,20.6
2017-10-18T06:17:49.145Z,20.5
2017-10-18T06:18:57.230Z,20.6
2017-10-18T06:20:05.317Z,20.6
2017-10-18T06:21:13.402Z,20.6
2017-10-18T06:22:21.496Z,20.6
2017-10-18T06:23:29.583Z,20.6
2017-10-18T06:24:37.669Z,20.6
2017-10-18T06:25:45.755Z,20.4
2017-10-18T06:26:53.841Z,20.6
2017-10-18T06:28:01.927Z,20.5
2017-10-18T06:29:10.013Z,20.4
2017-10-18T06:30:18.098Z,20.5
2017-10-18T06:31:26.184Z,20.5
2017-10-18T06:32:34.268Z,20.5
2017-10-18T06:33:42.354Z,20.5
2017-10-18T06:34:50.444Z,20.6
2017-10-18T06:35:58.531Z,20.5
2017-10-18T06:37:06.615Z,20.5
2017-10-18T06:38:14.703Z,20.5
2017-10-18T06:39:22.789Z,20.5
2017-10-18T06:40:30.874Z,20.4
2017-10-18T06:41:38.961Z,20.5
2017-10-18T06:42:47.212Z,20.4
2017-10-18T06:43:55.297Z,20.4
2017-10-18T06:45:03.390Z,20.4
2017-10-18T06:46:11.467Z,20.4
2017-10-18T06:47:19.555Z,20.4
2017-10-18T06:48:27.641Z,20.6
2017-10-18T06:49:35.744Z,20.5
2017-10-18T06:50:43.831Z,20.5
2017-10-18T06:51:51.917Z,20.5
2017-10-18T06:53:00.010Z,20.4
2017-10-18T06:54:08.088Z,20.5
2017-10-18T06:55:16.183Z,20.5
2017-10-18T06:56:24.260Z,20.5
2017-10-18T06:57:32.345Z,20.4
2017-10-18T06:58:40.432Z,20.4
2017-10-18T06:59:48.518Z,20.5
2017-10-18T07:00:56.606Z,20.5
2017-10-18T07:02:04.689Z,20.4
2017-10-18T07:03:12.780Z,20.3
2017-10-18T07:04:20.877Z,20.4
2017-10-18T07:05:28.949Z,20.3
2017-10-18T07:06:37.043Z,20.4
2017-10-18T07:07:45.120Z,20.3
2017-10-18T07:08:53.213Z,20.4
2017-10-18T07:10:01.291Z,20.4
2017-10-18T07:11:09.381Z,20.4
2017-10-18T07:12:17.467Z,20.4
2017-10-18T07:13:25.556Z,20.4
2017-10-18T07:14:33.644Z,20.3
2017-10-18T07:15:41.737Z,20.4
2017-10-18T07:16:49.810Z,20.3
2017-10-18T07:17:57.899Z,20.3
2017-10-18T07:19:05.990Z,20.4
2017-10-18T07:20:14.068Z,20.4
2017-10-18T07:21:22.154Z,20.3
2017-10-18T07:22:30.241Z,20.4
2017-10-18T07:23:38.327Z,20.4
2017-10-18T07:24:46.428Z,20.3
2017-10-18T07:25:54.519Z,20.3
2017-10-18T07:27:02.593Z,20.3
2017-10-18T07:28:10.685Z,20.3
2017-10-18T07:29:18.765Z,20.3
2017-10-18T07:30:26.852Z,20.3
2017-10-18T07:31:34.944Z,20.3
2017-10-18T07:32:43.033Z,20.3
2017-10-18T07:33:51.125Z,20.3
2017-10-18T07:34:59.204Z,20.2
2017-10-18T07:36:07.293Z,20.3
2017-10-18T07:37:15.379Z,20.2
2017-10-18T07:38:23.465Z,20.2
2017-10-18T07:39:31.549Z,20.2
2017-10-18T07:40:39.638Z,20.2
2017-10-18T07:41:47.718Z,20.2
2017-10-18T07:42:55.804Z,20.2
2017-10-18T07:44:03.888Z,20.2
2017-10-18T07:45:11.976Z,20.2
2017-10-18T07:46:20.071Z,20.2
2017-10-18T07:47:28.154Z,20.2
2017-10-18T07:48:36.257Z,20.3
2017-10-18T07:49:44.333Z,20.2
2017-10-18T07:50:52.421Z,20.2
2017-10-18T07:52:00.505Z,20.1
2017-10-18T07:53:08.593Z,20.3
2017-10-18T07:54:16.682Z,20.2
2017-10-18T07:55:24.764Z,20.1
2017-10-18T07:56:32.856Z,20.2
2017-10-18T07:57:40.935Z,20.2
2017-10-18T07:58:49.019Z,20.2
2017-10-18T07:59:57.103Z,20.2
2017-10-18T08:01:05.190Z,20.1
2017-10-18T08:02:13.320Z,20.3
2017-10-18T08:03:21.361Z,20.1
2017-10-18T08:04:29.446Z,20.2
2017-10-18T08:05:37.533Z,20.2
2017-10-18T08:06:45.624Z,20.2
2017-10-18T08:07:53.705Z,20.1
2017-10-18T08:09:01.792Z,20.2
2017-10-18T08:10:09.890Z,20.2
2017-10-18T08:11:18.008Z,20.2
2017-10-18T08:12:26.061Z,20.2
2017-10-18T08:13:34.153Z,20.1
2017-10-18T08:14:42.233Z,20.1
2017-10-18T08:15:50.317Z,20.2
2017-10-18T08:16:58.403Z,20.1
2017-10-18T08:18:06.489Z,20.2
2017-10-18T08:19:14.574Z,20.2
2017-10-18T08:20:22.659Z,20.2
2017-10-18T08:21:30.746Z,20.2
2017-10-18T08:22:38.836Z,20.1
2017-10-18T08:23:46.916Z,20.1
2017-10-18T08:24:55.003Z,20.2
2017-10-18T08:26:03.085Z,20.2
2017-10-18T08:27:11.172Z,20.2
2017-10-18T08:28:19.257Z,20.3
2017-10-18T08:29:27.346Z,20.2
2017-10-18T08:30:35.431Z,20.2
2017-10-18T08:31:43.515Z,20.2
2017-10-18T08:32:51.602Z,20.2
2017-10-18T08:33:59.685Z,20.1
2017-10-18T08:35:07.769Z,20.2
2017-10-18T08:36:15.858Z,20.2
2017-10-18T08:37:23.945Z,20.2
2017-10-18T08:38:32.029Z,20.2
2017-10-18T08:39:40.116Z,20.1
2017-10-18T08:40:48.199Z,20.2
2017-10-18T08:41:56.288Z,20.1
2017-10-18T08:43:04.372Z,20.2
2017-10-18T08:44:12.456Z,20.2
2017-10-18T08:45:20.541Z,20.2
2017-10-18T08:46:28.626Z,20.2
2017-10-18T08:47:36.725Z,20.1
2017-10-18T08:48:44.799Z,20.3
2017-10-18T08:49:52.900Z,20.3
2017-10-18T08:51:00.980Z,20.2
2017-10-18T08:52:09.068Z,20.3
2017-10-18T08:53:17.155Z,20.2
2017-10-18T08:54:25.240Z,20.3
2017-10-18T08:55:33.325Z,20.2
2017-10-18T08:56:41.411Z,20.3
2017-10-18T08:57:49.565Z,20.1
2017-10-18T08:58:57.636Z,20.2
2017-10-18T09:00:05.721Z,20.2
2017-10-18T09:01:13.806Z,20.2
2017-10-18T09:02:21.894Z,20.3
2017-10-18T09:03:29.994Z,20.3
2017-10-18T09:04:38.064Z,20.3
2017-10-18T09:05:46.153Z,20.2
2017-10-18T09:06:54.235Z,20.3
2017-10-18T09:08:02.321Z,20.2
2017-10-18T09:09:10.404Z,20.2
2017-10-18T09:10:18.491Z,20.3
2017-10-18T09:11:26.577Z,20.2
2017-10-18T09:12:34.668Z,20.3
2017-10-18T09:13:42.750Z,20.3
2017-10-18T09:14:50.835Z,20.3
2017-10-18T09:15:58.922Z,20.3
2017-10-18T09:17:07.016Z,20.2
2017-10-18T09:18:15.092Z,20.3
2017-10-18T09:19:23.176Z,20.3
2017-10-18T09:20:31.281Z,20.3
2017-10-18T09:21:39.348Z,20.3
2017-10-18T09:22:47.434Z,20.2
2017-10-18T09:23:55.521Z,20.3
2017-10-18T09:25:03.607Z,20.4
2017-10-18T09:26:11.693Z,20.3
2017-10-18T09:27:19.778Z,20.3
2017-10-18T09:28:27.863Z,20.4
2017-10-18T09:29:35.952Z,20.4
2017-10-18T09:30:44.033Z,20.3
2017-10-18T09:31:52.119Z,20.4
2017-10-18T09:33:00.207Z,20.4
2017-10-18T09:34:08.292Z,20.4
2017-10-18T09:35:16.386Z,20.3
2017-10-18T09:36:24.474Z,20.3
2017-10-18T09:37:32.557Z,20.4
2017-10-18T09:38:40.641Z,20.4
2017-10-18T09:39:48.726Z,20.4
2017-10-18T09:40:56.814Z,20.4
2017-10-18T09:42:04.899Z,20.3
2017-10-18T09:43:12.986Z,20.4
2017-10-18T09:44:21.070Z,20.4
2017-10-18T09:45:29.156Z,20.4
2017-10-18T09:46:37.244Z,20.4
2017-10-18T09:47:45.343Z,20.4
2017-10-18T09:48:53.431Z,20.4
2017-10-18T09:50:01.514Z,20.5
2017-10-18T09:51:09.600Z,20.5
2017-10-18T09:52:17.689Z,20.5
2017-10-18T09:53:25.772Z,20.5
2017-10-18T09:54:33.859Z,20.4
2017-10-18T09:55:41.943Z,20.5
2017-10-18T09:56:50.028Z,20.4
2017-10-18T09:57:58.112Z,20.4
2017-10-18T09:59:06.200Z,20.5
2017-10-18T10:00:14.288Z,20.4
2017-10-18T10:01:22.393Z,20.4
2017-10-18T10:02:30.458Z,20.5
2017-10-18T10:03:38.545Z,20.4
2017-10-18T10:04:46.632Z,20.5
2017-10-18T10:05:54.714Z,20.5
2017-10-18T10:07:02.799Z,20.5
2017-10-18T10:08:10.886Z,20.4
2017-10-18T10:09:18.972Z,20.5
2017-10-18T10:10:27.061Z,20.5
2017-10-18T10:11:35.144Z,20.4
2017-10-18T10:12:43.232Z,20.6
2017-10-18T10:13:51.317Z,20.5
2017-10-18T10:14:59.408Z,20.4
2017-10-18T10:16:07.490Z,20.5
2017-10-18T10:17:15.576Z,20.4
2017-10-18T10:18:23.660Z,20.5
2017-10-18T10:19:31.747Z,20.5
2017-10-18T10:20:39.835Z,20.4
2017-10-18T10:21:47.927Z,20.6
2017-10-18T10:22:56.009Z,20.5
2017-10-18T10:24:04.091Z,20.5
2017-10-18T10:25:12.178Z,20.5
2017-10-18T10:26:20.266Z,20.5
2017-10-18T10:27:28.350Z,20.5
2017-10-18T10:28:36.435Z,20.6
2017-10-18T10:29:44.528Z,20.6
2017-10-18T10:30:52.634Z,20.5
2017-10-18T10:32:00.704Z,20.6
2017-10-18T10:33:08.787Z,20.5
2017-10-18T10:34:16.869Z,20.4
2017-10-18T10:35:24.957Z,20.5
2017-10-18T10:36:33.043Z,20.5
2017-10-18T10:37:41.127Z,20.5
2017-10-18T10:38:49.216Z,20.5
2017-10-18T10:39:57.301Z,20.5
2017-10-18T10:41:05.390Z,20.5
2017-10-18T10:42:13.473Z,20.6
2017-10-18T10:43:21.557Z,20.6
2017-10-18T10:44:29.643Z,20.6
2017-10-18T10:45:37.729Z,20.6
2017-10-18T10:46:45.820Z,20.6
2017-10-18T10:47:53.902Z,20.5
2017-10-18T10:49:02.007Z,20.6
2017-10-18T10:50:10.084Z,20.6
2017-10-18T10:51:18.169Z,20.6
2017-10-18T10:52:26.254Z,20.7
2017-10-18T10:53:34.343Z,20.6
2017-10-18T10:54:42.427Z,20.6
2017-10-18T10:55:50.513Z,20.6
2017-10-18T10:56:58.599Z,20.6
2017-10-18T10:58:06.684Z,20.6
2017-10-18T10:59:14.785Z,20.6
2017-10-18T11:00:22.861Z,20.6
2017-10-18T11:01:30.944Z,20.6
2017-10-18T11:02:39.028Z,20.6
2017-10-18T11:03:47.125Z,20.7
2017-10-18T11:04:55.203Z,20.7
2017-10-18T11:06:03.289Z,20.6
2017-10-18T11:07:11.375Z,20.6
2017-10-18T11:08:19.460Z,20.6
2017-10-18T11:09:27.551Z,20.7
2017-10-18T11:10:35.634Z,20.7
2017-10-18T11:11:43.722Z,20.6
2017-10-18T11:12:51.804Z,20.6
2017-10-18T11:13:59.890Z,20.6
2017-10-18T11:15:07.977Z,20.6
2017-10-18T11:16:16.063Z,20.6
2017-10-18T11:17:24.168Z,20.6
2017-10-18T11:18:32.234Z,20.6
2017-10-18T11:19:40.322Z,20.6
2017-10-18T11:20:48.412Z,20.6
2017-10-18T11:21:56.497Z,20.7
2017-10-18T11:23:04.578Z,20.7
2017-10-18T11:24:12.667Z,20.7
2017-10-18T11:25:20.752Z,20.7
2017-10-18T11:26:28.839Z,20.7
2017-10-18T11:27:36.925Z,20.6
2017-10-18T11:28:45.024Z,20.7
2017-10-18T11:29:53.105Z,20.7
2017-10-18T11:31:01.193Z,20.7
2017-10-18T11:32:09.277Z,20.6
2017-10-18T11:33:17.365Z,20.6
2017-10-18T11:34:25.452Z,20.6
2017-10-18T11:35:33.538Z,20.7
2017-10-18T11:36:41.625Z,20.6
2017-10-18T11:37:49.709Z,20.7
2017-10-18T11:38:57.794Z,20.7
2017-10-18T11:40:05.887Z,20.7
2017-10-18T11:41:13.971Z,20.7
2017-10-18T11:42:22.059Z,20.7
2017-10-18T11:43:30.145Z,20.7
2017-10-18T11:44:38.230Z,20.7
2017-10-18T11:45:46.318Z,20.6
2017-10-18T11:46:54.410Z,20.6
2017-10-18T11:48:02.507Z,20.7
2017-10-18T11:49:10.578Z,20.7
2017-10-18T11:50:18.661Z,20.7
2017-10-18T11:51:26.747Z,20.6
2017-10-18T11:52:34.834Z,20.6
2017-10-18T11:53:42.923Z,20.7
2017-10-18T11:54:51.016Z,20.7
2017-10-18T11:55:59.098Z,20.7
2017-10-18T11:57:07.185Z,20.7
2017-10-18T11:58:15.380Z,20.7
2017-10-18T11:59:23.466Z,20.7
2017-10-18T12:00:31.550Z,20.7
2017-10-18T12:01:39.663Z,20.7
2017-10-18T12:02:47.732Z,20.6
2017-10-18T12:03:55.814Z,20.7
2017-10-18T12:05:03.901Z,20.7
2017-10-18T12:06:11.989Z,20.7
2017-10-18T12:07:20.081Z,20.7
2017-10-18T12:08:28.165Z,20.7
2017-10-18T12:09:36.252Z,20.7
2017-10-18T12:10:44.338Z,20.7
2017-10-18T12:11:52.424Z,20.7
2017-10-18T12:13:00.513Z,20.6
2017-10-18T12:14:08.597Z,20.7
2017-10-18T12:15:16.685Z,20.7
2017-10-18T12:16:24.772Z,20.7
2017-10-18T12:17:32.855Z,20.7
2017-10-18T12:18:40.941Z,20.7
2017-10-18T12:19:49.027Z,20.7
2017-10-18T12:20:57.114Z,20.7
2017-10-18T12:22:05.201Z,20.7
2017-10-18T12:23:13.287Z,20.7
2017-10-18T12:24:21.373Z,20.7
2017-10-18T12:25:29.459Z,20.7
2017-10-18T12:26:37.546Z,20.6
2017-10-18T12:27:45.630Z,20.6
2017-10-18T12:28:53.753Z,20.7
2017-10-18T12:30:01.805Z,20.6
2017-10-18T12:31:09.887Z,20.7
2017-10-18T12:32:17.975Z,20.7
2017-10-18T12:33:26.074Z,20.7
2017-10-18T12:34:34.157Z,20.7
2017-10-18T12:35:42.241Z,20.6
2017-10-18T12:36:50.333Z,20.7
2017-10-18T12:37:58.415Z,20.7
2017-10-18T12:39:06.512Z,20.6
2017-10-18T12:40:14.592Z,20.7
2017-10-18T12:41:22.681Z,20.7
2017-10-18T12:42:30.773Z,20.7
2017-10-18T12:43:38.853Z,20.7
2017-10-18T12:44:46.946Z,20.7
2017-10-18T12:45:55.032Z,20.7
2017-10-18T12:47:03.121Z,20.7
2017-10-18T12:48:11.204Z,20.6
2017-10-18T12:49:19.293Z,20.7
2017-10-18T12:50:27.376Z,20.7
2017-10-18T12:51:35.464Z,20.7
2017-10-18T12:52:43.555Z,20.7
2017-10-18T12:53:51.633Z,20.7
2017-10-18T12:54:59.720Z,20.7
2017-10-18T12:56:07.806Z,20.6
2017-10-18T12:57:15.892Z,20.7
2017-10-18T12:58:23.980Z,20.7
2017-10-18T12:59:32.066Z,20.7
2017-10-18T13:00:40.151Z,20.7
2017-10-18T13:01:48.237Z,20.6
2017-10-18T13:02:56.324Z,20.6
2017-10-18T13:04:04.408Z,20.7
2017-10-18T13:05:12.497Z,20.7
2017-10-18T13:06:20.581Z,20.7
2017-10-18T13:07:28.668Z,20.7
2017-10-18T13:08:36.755Z,20.7
2017-10-18T13:09:44.843Z,20.7
2017-10-18T13:10:52.927Z,20.7
2017-10-18T13:12:01.018Z,20.6
2017-10-18T13:13:09.097Z,20.7
2017-10-18T13:14:17.199Z,20.6
2017-10-18T13:15:25.269Z,20.6
2017-10-18T13:16:33.356Z,20.7
2017-10-18T13:17:41.556Z,20.7
2017-10-18T13:18:49.640Z,20.7
2017-10-18T13:19:57.734Z,20.7
2017-10-18T13:21:05.817Z,20.7
2017-10-18T13:22:13.900Z,20.7
2017-10-18T13:23:21.984Z,20.7
2017-10-18T13:24:30.078Z,20.7
2017-10-18T13:25:38.164Z,20.7
2017-10-18T13:26:46.250Z,20.7
2017-10-18T13:27:54.336Z,20.7
2017-10-18T13:29:02.428Z,20.7
2017-10-18T13:30:10.513Z,20.7
2017-10-18T13:31:18.595Z,20.7
2017-10-18T13:32:26.681Z,20.7
2017-10-18T13:33:34.763Z,20.7
2017-10-18T13:34:42.872Z,20.7
2017-10-18T13:35:50.949Z,20.6
2017-10-18T13:36:59.034Z,20.6
2017-10-18T13:38:07.122Z,20.7
2017-10-18T13:39:15.214Z,20.7
2017-10-18T13:40:23.314Z,20.7
2017-10-18T13:41:31.400Z,20.7
2017-10-18T13:42:39.484Z,20.7
2017-10-18T13:43:47.573Z,20.6
2017-10-18T13:44:55.662Z,20.6
2017-10-18T13:46:03.748Z,20.7
2017-10-18T13:47:11.827Z,20.6
2017-10-18T13:48:19.913Z,20.6
2017-10-18T13:49:28.001Z,20.7
2017-10-18T13:50:36.088Z,20.7
2017-10-18T13:51:44.172Z,20.7
2017-10-18T13:52:52.290Z,20.7
2017-10-18T13:54:00.343Z,20.7
2017-10-18T13:55:08.427Z,20.7
2017-10-18T13:56:16.514Z,20.7
2017-10-18T13:57:24.600Z,20.7
2017-10-18T13:58:32.688Z,20.7
2017-10-18T13:59:40.773Z,20.7
2017-10-18T14:00:48.864Z,20.7
2017-10-18T14:01:56.947Z,20.7
2017-10-18T14:03:05.034Z,20.7
2017-10-18T14:04:13.117Z,20.8
2017-10-18T14:05:21.202Z,20.7
2017-10-18T14:06:29.290Z,20.7
2017-10-18T14:07:37.375Z,20.7
2017-10-18T14:08:45.461Z,20.7
2017-10-18T14:09:53.549Z,20.7
2017-10-18T14:11:01.640Z,20.8
2017-10-18T14:12:09.723Z,20.7
2017-10-18T14:13:17.814Z,20.7
2017-10-18T14:14:25.894Z,20.7
2017-10-18T14:15:34.038Z,20.8
2017-10-18T14:16:42.065Z,20.8
2017-10-18T14:17:50.158Z,20.7
2017-10-18T14:18:58.237Z,20.8
2017-10-18T14:20:06.337Z,20.8
2017-10-18T14:21:14.409Z,20.8
2017-10-18T14:22:22.496Z,20.8
2017-10-18T14:23:30.589Z,20.8
2017-10-18T14:24:38.667Z,20.8
2017-10-18T14:25:46.766Z,20.9
2017-10-18T14:26:54.840Z,20.8
2017-10-18T14:28:02.928Z,20.8
2017-10-18T14:29:11.015Z,20.8
2017-10-18T14:30:19.102Z,20.8
2017-10-18T14:31:27.205Z,20.9
2017-10-18T14:32:35.273Z,20.8
2017-10-18T14:33:43.358Z,20.9
2017-10-18T14:34:51.446Z,20.8
2017-10-18T14:35:59.530Z,20.8
2017-10-18T14:37:07.616Z,20.8
2017-10-18T14:38:15.707Z,20.9
2017-10-18T14:39:23.855Z,20.8
2017-10-18T14:40:31.942Z,20.8
2017-10-18T14:41:40.027Z,20.8
2017-10-18T14:42:48.120Z,20.9
2017-10-18T14:43:56.201Z,20.9
2017-10-18T14:45:04.286Z,20.8
2017-10-18T14:46:12.372Z,20.9
2017-10-18T14:47:20.459Z,20.9
2017-10-18T14:48:28.545Z,20.9
2017-10-18T14:49:36.631Z,20.9
2017-10-18T14:50:44.716Z,20.8
2017-10-18T14:51:52.802Z,20.8
2017-10-18T14:53:00.894Z,20.9
2017-10-18T14:54:08.976Z,20.8
2017-10-18T14:55:17.063Z,20.8
2017-10-18T14:56:25.150Z,20.9
2017-10-18T14:57:33.235Z,20.9
2017-10-18T14:58:41.321Z,20.9
2017-10-18T14:59:49.405Z,20.9
2017-10-18T15:00:57.493Z,20.9
2017-10-18T15:02:05.649Z,20.8
2017-10-18T15:03:13.676Z,20.8
2017-10-18T15:04:21.763Z,20.9
2017-10-18T15:05:29.869Z,20.8
2017-10-18T15:06:37.951Z,20.8